Latest Weather Observations for Cape Byron

IDN60801

Issued at 7:32 am EST Tuesday 1 September 2015 (issued every 30 minutes, with the page automatically refreshed every 10 minutes)

About weather observations | Map of weather stations | Latest weather observations for NSW | Other Formats
Station Details ID: 058216 Name: CAPE BYRON AWS Lat: -28.64 Lon: 153.64 Height: 95.0 m
Data from the previous 72 hours. | See also: Recent months at Cape Byron
Date/Time
EST
Temp
°C
App
Temp
°C
Dew
Point
Rel
Hum
%
Delta-T
°C
Wind Press
QNH
hPa
Press
MSL
hPa
Rain
since 9 am
mm
Dir
 
Spd
km/h
Gust
km/h
Spd
kts
Gust
kts
01/07:30am 12.8 8.1 5.9 63 3.3 WNW 20 22 11 12 1016.1 1016.0 0.0
01/07:00am 12.7 7.8 5.1 60 3.5 WNW 20 24 11 13 1015.9 1015.8 0.0
01/06:30am 13.8 8.8 4.4 53 4.3 W 20 24 11 13 1015.7 1015.6 0.0
01/06:00am 14.3 8.1 4.3 51 4.6 W 26 32 14 17 1015.3 1015.2 0.0
01/05:30am 14.2 7.3 4.5 52 4.5 W 30 35 16 19 1015.0 1014.9 0.0
01/05:00am 13.8 7.3 4.7 54 4.2 W 28 35 15 19 1014.7 1014.6 0.0
01/04:30am 13.5 7.0 4.9 56 4.0 W 28 32 15 17 1014.5 1014.4 0.0
01/04:00am 13.3 6.9 5.2 58 3.8 W 28 32 15 17 1014.5 1014.4 0.0
01/03:30am 13.3 6.5 5.2 58 3.8 W 30 35 16 19 1014.6 1014.5 0.0
01/03:00am 13.1 6.3 5.3 59 3.6 W 30 37 16 20 1014.6 1014.5 0.0
01/02:30am 13.1 6.4 5.8 61 3.5 W 30 39 16 21 1014.7 1014.6 0.0
01/02:00am 13.1 6.9 6.2 63 3.3 W 28 35 15 19 1014.8 1014.7 0.0
01/01:30am 13.3 7.3 6.9 65 3.1 W 28 35 15 19 1015.0 1014.9 0.0
01/01:00am 13.6 7.8 7.8 68 2.9 W 28 35 15 19 1015.2 1015.1 0.0
01/12:30am 13.5 8.6 8.4 71 2.6 W 24 32 13 17 1015.4 1015.3 0.0
01/12:00am 13.9 10.0 8.7 71 2.6 W 19 22 10 12 1015.9 1015.8 0.0
 
Date/Time
EST
Temp
°C
App
Temp
°C
Dew
Point
Rel
Hum
%
Delta-T
°C
Wind Press
QNH
hPa
Press
MSL
hPa
Rain
since 9 am
mm
Dir
 
Spd
km/h
Gust
km/h
Spd
kts
Gust
kts
31/11:30pm 14.1 11.5 9.5 74 2.4 WNW 13 17 7 9 1016.1 1016.0 0.0
31/11:00pm 14.4 12.2 9.4 72 2.6 WNW 11 17 6 9 1016.1 1016.0 0.0
31/10:30pm 14.5 11.6 9.5 72 2.6 W 15 19 8 10 1016.1 1016.0 0.0
31/10:00pm 14.3 11.8 9.7 74 2.4 WNW 13 17 7 9 1016.0 1015.9 0.0
31/09:30pm 14.3 11.8 9.7 74 2.4 WNW 13 17 7 9 1015.9 1015.8 0.0
31/09:00pm 14.4 11.5 9.8 74 2.4 WNW 15 20 8 11 1015.9 1015.8 0.0
31/08:30pm 14.5 11.3 9.9 74 2.4 WNW 17 20 9 11 1015.6 1015.5 0.0
31/08:00pm 14.9 12.3 9.5 70 2.8 WNW 13 19 7 10 1015.4 1015.3 0.0
31/07:30pm 16.1 14.7 9.5 65 3.4 ENE 7 9 4 5 1015.2 1015.1 0.0
31/07:00pm 16.5 14.6 9.2 62 3.8 ENE 9 15 5 8 1014.9 1014.8 0.0
31/06:30pm 16.6 14.8 9.3 62 3.8 ENE 9 13 5 7 1014.7 1014.6 0.0
31/06:00pm 16.1 13.9 9.3 64 3.5 E 11 15 6 8 1014.5 1014.4 0.0
31/05:30pm 16.4 14.3 9.8 65 3.5 E 11 15 6 8 1014.4 1014.3 0.0
31/05:00pm 17.1 14.6 9.8 62 3.9 E 13 15 7 8 1014.2 1014.1 0.0
31/04:30pm 17.5 15.0 9.7 60 4.1 ESE 13 17 7 9 1014.0 1013.9 0.0
31/04:00pm 17.6 13.7 9.5 59 4.3 ESE 20 26 11 14 1013.7 1013.6 0.0
31/03:30pm 17.9 14.0 9.3 57 4.5 SE 20 26 11 14 1013.6 1013.5 0.0
31/03:00pm 17.7 13.6 10.1 61 4.0 SE 22 28 12 15 1013.6 1013.5 0.0
31/02:30pm 17.7 13.1 9.6 59 4.3 SE 24 32 13 17 1013.6 1013.5 0.0
31/02:00pm 17.6 13.6 9.0 57 4.5 SSE 20 28 11 15 1013.8 1013.7 0.0
31/01:30pm 18.0 14.3 10.1 60 4.2 SE 20 30 11 16 1014.2 1014.1 0.0
31/01:00pm 17.8 13.9 9.4 58 4.4 SSE 20 28 11 15 1014.4 1014.3 0.0
31/12:30pm 17.9 14.0 8.7 55 4.8 SSE 19 26 10 14 1014.8 1014.7 0.0
31/12:00pm 17.3 12.6 7.6 53 4.9 S 22 30 12 16 1015.0 1014.9 0.0
31/11:30am 17.1 13.2 9.5 61 4.0 SSE 20 28 11 15 1015.3 1015.2 0.0
31/11:00am 17.0 12.8 9.9 63 3.7 S 22 26 12 14 1015.9 1015.8 0.0
31/10:30am 16.9 12.9 9.1 60 4.1 S 20 28 11 15 1016.4 1016.2 0.0
31/10:00am 16.4 12.5 8.6 60 4.0 SSW 19 24 10 13 1016.6 1016.4 0.0
31/09:30am 16.5 13.2 9.4 63 3.7 SW 17 24 9 13 1016.6 1016.4 0.0
31/09:00am 15.9 12.2 9.3 65 3.4 SW 19 26 10 14 1016.7 1016.5 5.4
31/08:30am 14.9 10.8 8.6 66 3.2 WSW 20 28 11 15 1016.7 1016.5 5.4
31/08:00am 14.0 9.4 8.2 68 2.9 WSW 22 32 12 17 1016.6 1016.4 5.4
31/07:30am 13.7 9.1 8.3 70 2.7 WSW 22 30 12 16 1016.5 1016.3 5.4
31/07:00am 13.1 7.7 8.2 72 2.4 WSW 26 32 14 17 1016.6 1016.4 5.4
31/06:30am 12.5 7.2 8.4 76 2.0 WSW 26 33 14 18 1016.1 1016.0 5.4
31/06:00am 12.6 7.4 8.9 78 1.9 WSW 26 35 14 19 1015.8 1015.7 5.4
31/05:30am 12.5 7.0 9.1 80 1.7 WSW 28 33 15 18 1015.6 1015.5 5.4
31/05:00am 12.7 7.2 9.3 80 1.7 SW 28 35 15 19 1015.5 1015.4 5.4
31/04:30am 12.6 7.7 9.8 83 1.4 WSW 26 33 14 18 1015.4 1015.3 5.4
31/04:00am 12.7 7.4 9.7 82 1.5 WSW 28 35 15 19 1015.2 1015.1 5.4
31/03:30am 12.5 7.7 10.2 86 1.2 WSW 26 30 14 16 1015.1 1015.0 5.4
31/03:00am 12.8 8.5 10.9 88 1.0 WSW 24 32 13 17 1015.3 1015.2 5.4
31/02:30am 13.0 8.8 11.2 89 1.0 WSW 24 30 13 16 1015.6 1015.5 5.4
31/02:00am 13.1 9.0 11.5 90 0.9 SW 24 30 13 16 1015.8 1015.7 5.4
31/01:30am 13.1 8.7 11.7 91 0.7 WSW 26 32 14 17 1015.7 1015.6 5.4
31/01:00am 13.2 9.2 11.9 92 0.7 WSW 24 32 13 17 1016.0 1015.9 5.4
31/12:30am 13.3 9.7 12.0 92 0.7 WSW 22 26 12 14 1016.6 1016.4 5.4
31/12:00am 13.6 10.5 12.3 92 0.7 SW 20 24 11 13 1016.9 1016.7 5.4
 
Date/Time
EST
Temp
°C
App
Temp
°C
Dew
Point
Rel
Hum
%
Delta-T
°C
Wind Press
QNH
hPa
Press
MSL
hPa
Rain
since 9 am
mm
Dir
 
Spd
km/h
Gust
km/h
Spd
kts
Gust
kts
30/11:30pm 13.9 10.9 12.5 91 0.8 SW 20 28 11 15 1016.9 1016.7 4.8
30/11:00pm 14.8 10.3 12.7 87 1.2 WSW 28 43 15 23 1016.5 1016.3 0.6
30/10:30pm 16.8 15.3 11.9 73 2.7 S 11 15 6 8 1016.5 1016.3 0.0
30/10:00pm 16.2 14.1 11.2 72 2.7 SSW 13 17 7 9 1016.7 1016.5 0.0
30/09:30pm 17.5 13.5 10.6 64 3.7 SSE 22 30 12 16 1016.9 1016.7 0.0
30/09:00pm 17.7 13.8 12.2 70 3.0 SSE 24 32 13 17 1016.8 1016.6 0.0
30/08:30pm 17.6 13.7 12.1 70 3.0 S 24 30 13 16 1016.7 1016.5 0.0
30/08:00pm 17.6 12.9 12.1 70 3.0 SSE 28 37 15 20 1016.4 1016.2 0.0
30/07:30pm 17.7 12.6 11.9 69 3.2 S 30 37 16 20 1016.3 1016.1 0.0
30/07:00pm 17.3 11.8 12.6 74 2.6 S 33 39 18 21 1015.8 1015.7 0.0
30/06:30pm 15.8 12.5 12.7 82 1.7 SSW 22 30 12 16 1015.5 1015.4 0.0
30/06:00pm 15.9 12.6 12.8 82 1.7 SSW 22 26 12 14 1015.2 1015.1 0.0
30/05:30pm 16.7 12.0 13.2 80 2.0 SSW 30 37 16 20 1015.0 1014.9 0.0
30/05:00pm 17.0 10.8 12.7 76 2.4 SSW 37 43 20 23 1014.6 1014.5 0.0
30/04:30pm 17.2 11.0 12.5 74 2.6 SSW 37 43 20 23 1014.3 1014.2 0.0
30/04:00pm 17.4 11.3 13.1 76 2.4 SSW 37 44 20 24 1014.3 1014.2 0.0
30/03:30pm 17.5 11.0 12.8 74 2.6 SSW 39 46 21 25 1014.2 1014.1 0.0
30/03:00pm 17.2 10.5 12.3 73 2.7 S 39 44 21 24 1014.4 1014.3 0.0
30/02:30pm 17.3 11.0 12.4 73 2.7 S 37 44 20 24 1014.6 1014.5 0.0
30/02:00pm 17.3 10.3 12.4 73 2.7 S 41 48 22 26 1014.8 1014.7 0.0
30/01:30pm 17.0 9.2 11.3 69 3.1 SSW 43 52 23 28 1014.9 1014.8 0.0
30/01:00pm 17.3 9.9 11.1 67 3.4 SSW 41 48 22 26 1015.2 1015.1 0.0
30/12:30pm 17.3 9.3 11.1 67 3.4 SSW 44 50 24 27 1015.4 1015.3 0.0
30/12:00pm 17.3 9.5 11.1 67 3.4 SSW 43 48 23 26 1015.7 1015.6 0.0
30/11:30am 18.1 12.6 11.9 67 3.4 SSW 32 41 17 22 1016.3 1016.1 0.0
30/11:00am 17.9 13.2 10.5 62 4.0 SW 26 35 14 19 1016.9 1016.7 0.0
30/10:30am 17.6 13.5 11.6 68 3.3 SW 24 37 13 20 1017.2 1017.0 0.0
30/10:00am 17.2 12.0 11.7 70 3.0 SW 30 39 16 21 1017.3 1017.1 0.0
30/09:30am 16.5 12.2 10.8 69 3.1 SW 24 35 13 19 1017.5 1017.3 0.0
30/09:00am 15.6 11.4 9.9 69 3.0 WSW 22 32 12 17 1017.6 1017.4 0.6
30/08:30am 15.5 10.6 9.8 69 3.0 WSW 26 35 14 19 1017.6 1017.4 0.6
30/08:00am 15.1 9.3 9.5 69 2.9 WSW 30 39 16 21 1017.4 1017.2 0.6
30/07:30am 15.0 11.4 10.6 75 2.3 WSW 20 26 11 14 1017.3 1017.1 0.6
30/07:00am 15.2 11.0 11.0 76 2.2 WSW 24 32 13 17 1017.1 1016.9 0.6
30/06:30am 15.3 11.5 11.1 76 2.3 WSW 22 32 12 17 1016.8 1016.6 0.6
30/06:00am 15.3 12.1 11.1 76 2.2 WSW 19 20 10 11 1016.6 1016.4 0.6
30/05:30am 14.9 11.3 8.2 64 3.4 W 17 20 9 11 1015.8 1015.7 0.6
30/05:00am 14.7 11.7 10.7 77 2.1 WNW 17 20 9 11 1016.1 1016.0 0.6
30/04:30am 15.3 14.3 13.3 88 1.1 WNW 11 17 6 9 1016.5 1016.3 0.6
30/04:00am 15.6 15.4 13.6 88 1.1 NW 7 11 4 6 1016.5 1016.3 0.4
30/03:30am 15.6 15.7 13.8 89 1.0 WNW 6 11 3 6 1016.7 1016.5 0.4
30/03:00am 15.4 15.3 13.4 88 1.1 NNW 6 9 3 5 1016.9 1016.7 0.4
30/02:30am 15.4 15.1 13.4 88 1.1 N 7 11 4 6 1016.9 1016.7 0.4
30/02:00am 15.6 15.4 13.6 88 1.1 N 7 13 4 7 1017.7 1017.5 0.4
30/01:30am 16.1 16.0 13.9 87 1.2 NE 7 11 4 6 1017.9 1017.7 0.4
30/01:00am 16.1 15.6 13.8 86 1.3 NNW 9 15 5 8 1017.9 1017.7 0.4
30/12:30am 16.1 15.2 13.8 86 1.3 NNW 11 17 6 9 1018.4 1018.2 0.4
30/12:00am 16.3 15.0 13.8 85 1.4 NNW 13 20 7 11 1018.7 1018.5 0.4
 
Date/Time
EST
Temp
°C
App
Temp
°C
Dew
Point
Rel
Hum
%
Delta-T
°C
Wind Press
QNH
hPa
Press
MSL
hPa
Rain
since 9 am
mm
Dir
 
Spd
km/h
Gust
km/h
Spd
kts
Gust
kts
29/11:30pm 16.4 14.8 13.9 85 1.4 NNW 15 20 8 11 1018.9 1018.7 0.4
29/11:00pm 16.4 15.2 13.9 85 1.4 N 13 20 7 11 1019.0 1018.8 0.4
29/10:30pm 16.5 15.7 14.0 85 1.4 NNW 11 17 6 9 1019.5 1019.3 0.4
29/10:00pm 16.3 15.4 13.8 85 1.4 NNW 11 17 6 9 1019.6 1019.4 0.4
29/09:30pm 16.7 16.3 14.2 85 1.4 NNW 9 15 5 8 1019.9 1019.7 0.4
29/09:00pm 16.7 14.2 14.0 84 1.5 N 20 28 11 15 1019.8 1019.6 0.4
29/08:30pm 17.5 14.9 13.2 76 2.4 N 19 26 10 14 1019.7 1019.5 0.0
29/08:00pm 18.8 15.8 11.9 64 3.8 N 19 26 10 14 1019.9 1019.7 0.0
29/07:30pm 18.8 15.4 11.4 62 4.1 NNE 20 28 11 15 1019.9 1019.7 0.0
29/07:00pm 18.7 15.2 10.8 60 4.3 NNE 20 28 11 15 1020.1 1019.9 0.0
29/06:30pm 18.7 15.4 10.8 60 4.3 NNE 19 24 10 13 1020.2 1020.0 0.0
29/06:00pm 18.6 15.7 10.9 61 4.2 NNE 17 26 9 14 1019.9 1019.7 0.0
29/05:30pm 18.6 15.3 10.9 61 4.2 NNE 19 28 10 15 1019.4 1019.2 0.0
29/05:00pm 18.6 15.8 11.2 62 4.0 NNE 17 22 9 12 1019.2 1019.0 0.0
29/04:30pm 18.7 15.3 11.3 62 4.1 NE 20 28 11 15 1019.1 1018.9 0.0
29/04:00pm 18.8 15.1 11.6 63 4.0 NE 22 28 12 15 1019.3 1019.1 0.0
29/03:30pm 19.4 18.1 13.8 70 3.2 ENE 13 20 7 11 1019.4 1019.2 0.0
29/03:00pm 19.4 18.5 13.8 70 3.2 E 11 15 6 8 1019.5 1019.3 0.0
29/02:30pm 19.2 17.9 13.6 70 3.2 ENE 13 15 7 8 1019.9 1019.7 0.0
29/02:00pm 19.0 17.8 12.7 67 3.5 E 11 15 6 8 1020.3 1020.1 0.0
29/01:30pm 19.8 18.4 13.5 67 3.6 E 13 15 7 8 1020.8 1020.7 0.0
29/01:00pm 19.3 17.9 12.1 63 4.0 E 11 15 6 8 1021.3 1021.2 0.0
29/12:30pm 20.0 18.3 12.5 62 4.2 E 13 15 7 8 1021.5 1021.4 0.0
29/12:00pm 19.7 18.2 12.0 61 4.3 ESE 11 13 6 7 1022.2 1022.1 0.0
29/11:30am 19.7 18.5 11.7 60 4.4 SE 9 13 5 7 1022.7 1022.6 0.0
29/11:00am 18.8 17.5 11.4 62 4.0 SSE 9 13 5 7 1023.1 1023.0 0.0
29/10:30am 18.1 16.5 11.4 65 3.7 S 11 11 6 6 1023.5 1023.4 0.0
29/10:00am 17.7 15.7 10.3 62 3.9 S 11 13 6 7 1023.5 1023.4 0.0
29/09:30am 16.9 15.1 9.6 62 3.8 SSW 9 11 5 6 1023.9 1023.8 0.0
29/09:00am 16.8 15.3 10.4 66 3.4 SSW 9 11 5 6 1023.8 1023.7 0.2
29/08:30am 15.5 13.3 9.4 67 3.2 SW 11 13 6 7 1023.7 1023.6 0.2
29/08:00am 15.8 14.2 8.8 63 3.6 SSW 7 9 4 5 1023.7 1023.6 0.2

Other Formats:

Comma delimited format used in spreadsheet applications
http://www.bom.gov.au/fwo/IDN60801/IDN60801.94599.axf

JavaScript Object Notation format (JSON) in row-major order
http://www.bom.gov.au/fwo/IDN60801/IDN60801.94599.json